createdAt,value
2022-08-17T00:00:34.350Z,16.75
2022-08-17T00:03:05.065Z,20.00
2022-08-17T00:05:36.280Z,19.25
2022-08-17T00:08:05.105Z,18.00
2022-08-17T00:10:33.334Z,16.50
2022-08-17T00:13:01.655Z,18.25
2022-08-17T00:15:29.839Z,16.50
2022-08-17T00:17:57.960Z,21.00
2022-08-17T00:20:34.738Z,17.50
2022-08-17T00:23:05.405Z,18.50
2022-08-17T00:25:33.599Z,21.00
2022-08-17T00:28:02.183Z,17.00
2022-08-17T00:30:30.786Z,16.00
2022-08-17T00:33:19.692Z,18.00
2022-08-17T00:35:48.417Z,21.00
2022-08-17T00:38:18.171Z,20.75
2022-08-17T00:40:47.363Z,20.00
2022-08-17T00:43:18.458Z,19.25
2022-08-17T00:45:46.638Z,20.50
2022-08-17T00:48:27.256Z,17.25
2022-08-17T00:51:00.562Z,18.00
2022-08-17T00:53:31.354Z,21.00
2022-08-17T00:56:01.098Z,17.75
2022-08-17T00:58:35.921Z,19.00
2022-08-17T01:01:05.568Z,21.00
2022-08-17T01:03:34.617Z,16.75
2022-08-17T01:06:04.595Z,18.75
2022-08-17T01:08:34.535Z,14.50
2022-08-17T01:11:05.411Z,21.00
2022-08-17T01:13:40.764Z,21.25
2022-08-17T01:16:13.036Z,16.00
2022-08-17T01:18:42.269Z,20.50
2022-08-17T01:21:16.395Z,21.00
2022-08-17T01:23:45.909Z,18.25
2022-08-17T01:26:14.051Z,22.00
2022-08-17T01:28:53.727Z,19.00
2022-08-17T01:31:26.809Z,18.00
2022-08-17T01:33:54.928Z,21.00
2022-08-17T01:36:23.000Z,20.50
2022-08-17T01:38:52.736Z,15.50
2022-08-17T01:41:22.945Z,16.00
2022-08-17T01:43:52.741Z,18.00
2022-08-17T01:46:23.285Z,21.25
2022-08-17T01:48:51.724Z,20.50
2022-08-17T01:51:20.361Z,20.00
2022-08-17T01:53:49.750Z,20.25
2022-08-17T01:56:20.211Z,20.75
2022-08-17T01:58:48.911Z,21.50
2022-08-17T02:01:20.991Z,21.00
2022-08-17T02:03:56.097Z,18.00
2022-08-17T02:06:29.695Z,20.25
2022-08-17T02:09:02.448Z,20.00
2022-08-17T02:11:34.257Z,20.25
2022-08-17T02:14:04.068Z,19.25
2022-08-17T02:16:37.631Z,19.25
2022-08-17T02:19:08.175Z,14.25
2022-08-17T02:21:36.723Z,21.00
2022-08-17T02:24:05.771Z,18.75
2022-08-17T02:26:35.387Z,19.00
2022-08-17T02:29:04.282Z,16.25
2022-08-17T02:31:32.649Z,17.75
2022-08-17T02:34:04.500Z,19.00
2022-08-17T02:36:33.364Z,20.75
2022-08-17T02:39:01.790Z,20.50
2022-08-17T02:41:30.490Z,15.25
2022-08-17T02:44:00.193Z,18.00
2022-08-17T02:46:28.415Z,20.25
2022-08-17T02:48:56.690Z,15.50
2022-08-17T02:51:24.924Z,18.50
2022-08-17T02:53:53.151Z,18.00
2022-08-17T02:56:41.264Z,16.50
2022-08-17T02:59:10.832Z,19.50
2022-08-17T03:01:39.120Z,18.25
2022-08-17T03:04:07.686Z,18.50
2022-08-17T03:06:35.756Z,19.00
2022-08-17T03:09:03.857Z,21.25
2022-08-17T03:11:31.998Z,15.50
2022-08-17T03:14:00.158Z,15.50
2022-08-17T03:16:29.663Z,19.25
2022-08-17T03:18:58.173Z,14.25
2022-08-17T03:21:26.257Z,15.00
2022-08-17T03:23:54.687Z,10.00
2022-08-17T03:26:22.877Z,12.50
2022-08-17T03:28:50.997Z,18.00
2022-08-17T03:31:20.819Z,17.75
2022-08-17T03:33:50.319Z,14.25
2022-08-17T03:36:18.533Z,14.25
2022-08-17T03:38:47.102Z,11.50
2022-08-17T03:41:15.218Z,13.50
2022-08-17T03:43:43.514Z,16.00
2022-08-17T03:46:34.778Z,14.00
2022-08-17T03:49:23.473Z,15.25
2022-08-17T03:52:09.038Z,17.25
2022-08-17T03:54:54.618Z,17.75
2022-08-17T03:57:22.904Z,17.00
2022-08-17T03:59:51.385Z,12.25
2022-08-17T04:02:21.032Z,13.00
2022-08-17T04:04:51.574Z,17.25
2022-08-17T04:07:19.830Z,15.50
2022-08-17T04:09:48.072Z,8.00
2022-08-17T04:12:16.350Z,11.50
2022-08-17T04:14:51.743Z,16.50
2022-08-17T04:17:23.505Z,18.00
2022-08-17T04:19:53.613Z,15.25
2022-08-17T04:22:30.042Z,11.00
2022-08-17T04:25:04.220Z,15.75
2022-08-17T04:27:32.462Z,15.25
2022-08-17T04:30:00.641Z,16.00
2022-08-17T04:33:04.252Z,12.00
2022-08-17T04:35:20.704Z,11.25
2022-08-17T04:37:48.955Z,16.00
2022-08-17T04:40:34.660Z,16.00
2022-08-17T04:43:03.751Z,12.25
2022-08-17T04:45:32.021Z,11.00
2022-08-17T04:48:01.229Z,15.50
2022-08-17T04:50:30.832Z,14.00
2022-08-17T04:52:59.195Z,8.50
2022-08-17T04:55:27.562Z,12.50
2022-08-17T04:57:55.736Z,16.75
2022-08-17T05:00:25.988Z,15.50
2022-08-17T05:02:55.414Z,17.00
2022-08-17T05:05:25.489Z,13.75
2022-08-17T05:07:55.821Z,12.00
2022-08-17T05:10:24.065Z,15.25
2022-08-17T05:12:58.723Z,16.25
2022-08-17T05:15:26.998Z,14.00
2022-08-17T05:17:55.203Z,15.00
2022-08-17T05:20:24.107Z,14.00
2022-08-17T05:22:53.730Z,10.50
2022-08-17T05:25:25.575Z,16.00
2022-08-17T05:27:54.468Z,11.00
2022-08-17T05:30:23.412Z,14.00
2022-08-17T05:32:52.837Z,15.25
2022-08-17T05:35:21.504Z,12.00
2022-08-17T05:37:49.635Z,15.25
2022-08-17T05:40:18.410Z,14.00
2022-08-17T05:42:48.045Z,14.00
2022-08-17T05:45:17.117Z,9.50
2022-08-17T05:48:05.440Z,11.00
2022-08-17T05:50:36.314Z,14.50
2022-08-17T05:53:10.014Z,14.50
2022-08-17T05:55:45.286Z,8.75
2022-08-17T05:58:21.694Z,13.75
2022-08-17T06:00:56.092Z,9.50
2022-08-17T06:03:28.706Z,13.50
2022-08-17T06:06:05.924Z,15.50
2022-08-17T06:08:39.744Z,13.00
2022-08-17T06:11:15.495Z,14.75
2022-08-17T06:13:51.456Z,14.50
2022-08-17T06:16:32.880Z,14.50
2022-08-17T06:19:03.934Z,12.00
2022-08-17T06:21:35.292Z,12.00
2022-08-17T06:24:06.779Z,13.00
2022-08-17T06:26:42.780Z,13.00
2022-08-17T06:29:18.765Z,13.25
2022-08-17T06:31:47.715Z,13.75
2022-08-17T06:34:16.125Z,13.50
2022-08-17T06:36:49.932Z,10.25
2022-08-17T06:39:26.635Z,13.00
2022-08-17T06:42:02.501Z,12.75
2022-08-17T06:44:43.709Z,14.50
2022-08-17T06:47:28.033Z,13.00
2022-08-17T06:50:02.751Z,9.25
2022-08-17T06:52:45.556Z,11.25
2022-08-17T06:55:18.930Z,10.75
2022-08-17T06:57:50.413Z,10.75
2022-08-17T07:00:22.422Z,13.25
2022-08-17T07:02:54.427Z,13.00
2022-08-17T07:05:24.246Z,12.25
2022-08-17T07:08:05.232Z,12.00
2022-08-17T07:10:37.200Z,10.25
2022-08-17T07:13:14.940Z,9.75
2022-08-17T07:15:46.686Z,11.00
2022-08-17T07:18:14.833Z,11.00
2022-08-17T07:20:45.973Z,8.75
2022-08-17T07:23:22.377Z,10.25
2022-08-17T07:25:50.744Z,10.75
2022-08-17T07:28:23.035Z,11.25
2022-08-17T07:30:54.962Z,6.25
2022-08-17T07:33:28.016Z,7.75
2022-08-17T07:36:00.982Z,10.00
2022-08-17T07:38:30.026Z,7.00
2022-08-17T07:41:03.121Z,9.00
2022-08-17T07:43:33.667Z,8.00
2022-08-17T07:46:37.476Z,10.00
2022-08-17T07:49:20.108Z,7.00
2022-08-17T07:51:57.178Z,6.60
2022-08-17T07:54:32.641Z,8.00
2022-08-17T07:57:02.254Z,7.40
2022-08-17T07:59:33.492Z,10.75
2022-08-17T08:02:21.546Z,9.00
2022-08-17T08:05:02.472Z,8.50
2022-08-17T08:07:34.905Z,8.00
2022-08-17T08:10:06.211Z,8.50
2022-08-17T08:12:36.716Z,10.00
2022-08-17T08:15:10.649Z,8.50
2022-08-17T08:17:47.115Z,9.75
2022-08-17T08:20:42.407Z,9.20
2022-08-17T08:23:07.198Z,8.00
2022-08-17T08:25:44.380Z,5.75
2022-08-17T08:28:21.339Z,8.25
2022-08-17T08:30:51.353Z,8.50
2022-08-17T08:33:35.167Z,7.25
2022-08-17T08:36:07.592Z,7.50
2022-08-17T08:38:46.250Z,9.00
2022-08-17T08:41:34.674Z,7.50
2022-08-17T08:44:09.235Z,9.00
2022-08-17T08:46:40.681Z,6.50
2022-08-17T08:49:39.031Z,6.25
2022-08-17T08:52:16.245Z,6.50
2022-08-17T08:54:49.464Z,10.00
2022-08-17T08:57:42.809Z,9.00
2022-08-17T09:00:15.463Z,7.50
2022-08-17T09:03:03.947Z,4.50
2022-08-17T09:05:45.108Z,8.00
2022-08-17T09:08:22.093Z,8.00
2022-08-17T09:10:56.961Z,7.75
2022-08-17T09:13:30.015Z,8.00
2022-08-17T09:16:01.320Z,7.25
2022-08-17T09:19:03.007Z,8.25
2022-08-17T09:21:28.752Z,7.75
2022-08-17T09:24:06.128Z,6.25
2022-08-17T09:26:39.502Z,7.50
2022-08-17T09:29:10.369Z,6.75
2022-08-17T09:31:48.164Z,8.00
2022-08-17T09:34:18.711Z,8.50
2022-08-17T09:36:51.316Z,7.50
2022-08-17T09:39:25.832Z,7.00
2022-08-17T09:41:57.007Z,8.75
2022-08-17T09:44:29.345Z,9.00
2022-08-17T09:47:00.108Z,7.75
2022-08-17T09:49:32.120Z,6.00
2022-08-17T09:52:05.091Z,8.25
2022-08-17T09:54:39.135Z,8.00
2022-08-17T09:57:29.143Z,8.00
2022-08-17T10:00:13.360Z,9.00
2022-08-17T10:02:50.637Z,11.00
2022-08-17T10:05:22.932Z,9.50
2022-08-17T10:07:57.985Z,4.00
2022-08-17T10:10:29.796Z,9.75
2022-08-17T10:13:06.365Z,8.25
2022-08-17T10:15:42.732Z,10.00
2022-08-17T10:18:33.232Z,7.20
2022-08-17T10:21:16.941Z,8.25
2022-08-17T10:24:05.995Z,8.00
2022-08-17T10:26:43.006Z,8.00
2022-08-17T10:29:28.851Z,10.00
2022-08-17T10:32:03.644Z,7.50
2022-08-17T10:34:44.315Z,9.00
2022-08-17T10:37:25.606Z,7.75
2022-08-17T10:40:07.398Z,10.00
2022-08-17T10:42:37.976Z,10.25
2022-08-17T10:45:08.275Z,6.50
2022-08-17T10:47:58.169Z,11.25
2022-08-17T10:50:50.456Z,10.25
2022-08-17T10:53:33.582Z,10.25
2022-08-17T10:56:26.139Z,10.50
2022-08-17T10:58:55.434Z,6.50
2022-08-17T11:01:33.886Z,7.25
2022-08-17T11:04:06.033Z,11.00
2022-08-17T11:06:42.117Z,10.25
2022-08-17T11:09:32.784Z,9.00
2022-08-17T11:12:09.233Z,6.00
2022-08-17T11:14:44.113Z,7.75
2022-08-17T11:17:30.585Z,9.00
2022-08-17T11:20:09.154Z,9.25
2022-08-17T11:23:00.016Z,9.75
2022-08-17T11:25:35.529Z,11.00
2022-08-17T11:28:10.767Z,11.00
2022-08-17T11:30:44.625Z,9.75
2022-08-17T11:33:28.331Z,11.00
2022-08-17T11:36:04.189Z,11.50
2022-08-17T11:38:38.307Z,10.50
2022-08-17T11:41:15.833Z,12.00
2022-08-17T11:44:19.506Z,12.25
2022-08-17T11:47:20.595Z,10.00
2022-08-17T11:50:16.860Z,10.00
2022-08-17T11:52:50.933Z,6.75
2022-08-17T11:55:41.922Z,9.20
2022-08-17T11:58:28.271Z,8.00
2022-08-17T12:00:58.175Z,9.00
2022-08-17T12:03:54.034Z,8.60
2022-08-17T12:06:37.564Z,10.50
2022-08-17T12:09:09.706Z,7.50
2022-08-17T12:11:58.699Z,9.75
2022-08-17T12:14:51.689Z,7.75
2022-08-17T12:17:40.691Z,9.25
2022-08-17T12:20:18.121Z,9.00
2022-08-17T12:22:54.159Z,7.50
2022-08-17T12:25:26.344Z,9.75
2022-08-17T12:28:06.029Z,10.00
2022-08-17T12:30:36.674Z,11.75
2022-08-17T12:33:05.308Z,11.25
2022-08-17T12:35:35.759Z,11.50
2022-08-17T12:38:04.696Z,11.00
2022-08-17T12:40:33.951Z,8.25
2022-08-17T12:43:03.590Z,12.75
2022-08-17T12:45:33.744Z,8.75
2022-08-17T12:48:02.814Z,12.50
2022-08-17T12:50:32.397Z,11.25
2022-08-17T12:53:02.845Z,15.50
2022-08-17T12:55:36.469Z,17.00
2022-08-17T12:58:04.963Z,10.00
2022-08-17T13:00:34.555Z,14.25
2022-08-17T13:03:05.981Z,14.00
2022-08-17T13:05:36.077Z,14.25
2022-08-17T13:08:13.927Z,12.00
2022-08-17T13:10:42.122Z,13.50
2022-08-17T13:13:19.686Z,2.75
2022-08-17T13:15:53.949Z,10.50
2022-08-17T13:18:40.700Z,12.00
2022-08-17T13:21:23.166Z,15.75
2022-08-17T13:23:59.088Z,15.00
2022-08-17T13:26:31.898Z,10.50
2022-08-17T13:29:00.581Z,13.75
2022-08-17T13:31:44.034Z,14.00
2022-08-17T13:34:42.365Z,13.25
2022-08-17T13:37:30.481Z,12.25
2022-08-17T13:40:01.175Z,10.00
2022-08-17T13:42:33.800Z,11.00
2022-08-17T13:45:51.193Z,10.75
2022-08-17T13:48:24.578Z,9.50
2022-08-17T13:51:05.151Z,10.75
2022-08-17T13:53:34.620Z,9.50
2022-08-17T13:56:07.459Z,10.25
2022-08-17T13:58:57.773Z,8.25
2022-08-17T14:01:29.448Z,12.75
2022-08-17T14:03:58.624Z,9.50
2022-08-17T14:06:52.005Z,13.50
2022-08-17T14:09:16.514Z,10.00
2022-08-17T14:11:47.750Z,7.50
2022-08-17T14:14:17.275Z,10.50
2022-08-17T14:16:48.862Z,10.75
2022-08-17T14:19:18.236Z,14.00
2022-08-17T14:21:59.362Z,9.00
2022-08-17T14:24:30.982Z,13.75
2022-08-17T14:27:03.680Z,11.00
2022-08-17T14:29:33.629Z,11.75
2022-08-17T14:32:05.629Z,14.00
2022-08-17T14:34:37.199Z,12.75
2022-08-17T14:37:07.665Z,13.75
2022-08-17T14:39:36.918Z,11.00
2022-08-17T14:42:08.658Z,8.75
2022-08-17T14:44:37.043Z,16.00
2022-08-17T14:47:05.321Z,8.50
2022-08-17T14:49:33.595Z,9.00
2022-08-17T14:52:01.917Z,14.25
2022-08-17T14:54:33.996Z,13.00
2022-08-17T14:57:23.530Z,12.00
2022-08-17T14:59:55.250Z,12.50
2022-08-17T15:02:29.194Z,11.50
2022-08-17T15:05:00.057Z,8.00
2022-08-17T15:07:30.595Z,10.50
2022-08-17T15:10:00.896Z,9.00
2022-08-17T15:12:32.864Z,13.00
2022-08-17T15:15:04.883Z,9.25
2022-08-17T15:17:44.315Z,11.50
2022-08-17T15:20:15.881Z,11.00
2022-08-17T15:22:44.904Z,14.25
2022-08-17T15:25:13.838Z,10.75
2022-08-17T15:27:42.443Z,11.25
2022-08-17T15:30:13.438Z,13.25
2022-08-17T15:32:50.848Z,14.25
2022-08-17T15:35:28.222Z,12.50
2022-08-17T15:37:57.786Z,11.75
2022-08-17T15:40:26.346Z,11.25
2022-08-17T15:42:55.174Z,12.00
2022-08-17T15:45:26.580Z,10.50
2022-08-17T15:47:55.076Z,10.25
2022-08-17T15:50:23.513Z,11.25
2022-08-17T15:52:55.789Z,11.75
2022-08-17T15:55:24.427Z,10.50
2022-08-17T15:57:53.383Z,11.00
2022-08-17T16:00:22.676Z,11.00
2022-08-17T16:03:46.346Z,10.75
2022-08-17T16:05:42.763Z,11.25
2022-08-17T16:08:11.247Z,9.00
2022-08-17T16:10:39.505Z,12.75
2022-08-17T16:13:17.918Z,12.75
2022-08-17T16:15:51.052Z,12.25
2022-08-17T16:18:31.130Z,10.75
2022-08-17T16:21:19.677Z,13.00
2022-08-17T16:23:48.301Z,12.25
2022-08-17T16:26:16.731Z,13.00
2022-08-17T16:28:44.896Z,12.00
2022-08-17T16:31:13.015Z,12.50
2022-08-17T16:33:42.774Z,13.50
2022-08-17T16:36:31.203Z,16.00
2022-08-17T16:38:59.505Z,13.25
2022-08-17T16:41:45.760Z,14.00
2022-08-17T16:44:15.519Z,8.50
2022-08-17T16:46:45.516Z,14.00
2022-08-17T16:49:35.992Z,8.75
2022-08-17T16:52:05.621Z,16.50
2022-08-17T16:54:35.669Z,15.00
2022-08-17T16:57:05.463Z,12.50
2022-08-17T16:59:39.618Z,14.50
2022-08-17T17:02:14.263Z,12.50
2022-08-17T17:04:46.989Z,13.25
2022-08-17T17:07:21.290Z,14.00
2022-08-17T17:09:52.667Z,15.50
2022-08-17T17:13:02.606Z,11.00
2022-08-17T17:15:10.311Z,15.00
2022-08-17T17:17:39.727Z,13.50
2022-08-17T17:20:17.073Z,13.75
2022-08-17T17:22:48.355Z,12.75
2022-08-17T17:25:18.987Z,14.00
2022-08-17T17:27:51.654Z,14.25
2022-08-17T17:30:22.652Z,13.50
2022-08-17T17:32:52.018Z,15.00
2022-08-17T17:35:25.313Z,11.50
2022-08-17T17:37:54.430Z,14.50
2022-08-17T17:40:23.453Z,17.00
2022-08-17T17:42:53.737Z,14.75
2022-08-17T17:45:23.422Z,15.50
2022-08-17T17:47:51.938Z,13.75
2022-08-17T17:50:26.698Z,15.25
2022-08-17T17:52:59.614Z,15.50
2022-08-17T17:55:35.252Z,16.00
2022-08-17T17:58:08.012Z,16.00
2022-08-17T18:00:38.722Z,16.00
2022-08-17T18:03:15.281Z,16.50
2022-08-17T18:05:58.234Z,16.00
2022-08-17T18:08:44.374Z,16.75
2022-08-17T18:11:34.966Z,15.25
2022-08-17T18:14:10.812Z,17.25
2022-08-17T18:16:42.881Z,18.75
2022-08-17T18:19:14.357Z,17.75
2022-08-17T18:21:46.094Z,16.00
2022-08-17T18:24:16.020Z,18.00
2022-08-17T18:26:46.919Z,17.00
2022-08-17T18:29:20.530Z,20.00
2022-08-17T18:31:48.946Z,17.00
2022-08-17T18:34:45.478Z,18.25
2022-08-17T18:37:10.128Z,18.75
2022-08-17T18:39:39.927Z,17.50
2022-08-17T18:42:24.852Z,15.50
2022-08-17T18:44:55.299Z,15.00
2022-08-17T18:47:25.269Z,13.50
2022-08-17T18:49:57.668Z,15.25
2022-08-17T18:52:28.026Z,17.75
2022-08-17T18:55:03.860Z,18.75
2022-08-17T18:57:34.828Z,16.75
2022-08-17T19:00:11.546Z,16.75
2022-08-17T19:02:51.037Z,18.25
2022-08-17T19:05:30.368Z,23.00
2022-08-17T19:08:16.934Z,15.75
2022-08-17T19:10:47.423Z,19.75
2022-08-17T19:13:23.795Z,21.50
2022-08-17T19:16:14.091Z,17.00
2022-08-17T19:18:47.566Z,21.00
2022-08-17T19:21:17.208Z,14.00
2022-08-17T19:23:53.907Z,16.75
2022-08-17T19:26:50.634Z,19.00
2022-08-17T19:29:16.819Z,22.25
2022-08-17T19:31:50.691Z,15.25
2022-08-17T19:34:30.018Z,18.50
2022-08-17T19:37:07.046Z,20.75
2022-08-17T19:39:38.791Z,17.25
2022-08-17T19:42:11.969Z,21.50
2022-08-17T19:44:56.540Z,0.00
2022-08-17T19:47:54.438Z,18.00
2022-08-17T19:50:23.773Z,17.00
2022-08-17T19:52:56.117Z,20.50
2022-08-17T19:55:30.528Z,22.75
2022-08-17T19:58:05.687Z,18.25
2022-08-17T20:00:36.229Z,19.00
2022-08-17T20:03:06.482Z,19.25
2022-08-17T20:06:08.511Z,20.00
2022-08-17T20:08:27.716Z,21.00
2022-08-17T20:10:58.891Z,21.25
2022-08-17T20:13:32.871Z,19.50
2022-08-17T20:16:02.190Z,21.00
2022-08-17T20:18:36.463Z,20.25
2022-08-17T20:21:20.355Z,21.00
2022-08-17T20:23:54.371Z,19.50
2022-08-17T20:26:26.475Z,20.25
2022-08-17T20:29:09.487Z,21.75
2022-08-17T20:31:44.570Z,22.50
2022-08-17T20:34:34.868Z,21.00
2022-08-17T20:37:08.627Z,22.00
2022-08-17T20:39:39.112Z,21.00
2022-08-17T20:42:09.652Z,23.25
2022-08-17T20:44:39.017Z,19.50
2022-08-17T20:47:12.513Z,21.00
2022-08-17T20:49:50.774Z,23.00
2022-08-17T20:52:33.718Z,21.00
2022-08-17T20:55:02.490Z,21.50
2022-08-17T20:57:48.710Z,21.25
2022-08-17T21:00:31.816Z,22.00
2022-08-17T21:03:14.751Z,21.50
2022-08-17T21:05:57.380Z,22.25
2022-08-17T21:08:30.759Z,21.00
2022-08-17T21:11:00.193Z,21.00
2022-08-17T21:13:40.021Z,23.00
2022-08-17T21:16:11.525Z,20.00
2022-08-17T21:18:41.953Z,20.00
2022-08-17T21:21:18.280Z,20.00
2022-08-17T21:24:07.293Z,19.25
2022-08-17T21:26:50.528Z,20.25
2022-08-17T21:29:31.753Z,21.75
2022-08-17T21:32:19.285Z,21.00
2022-08-17T21:35:13.885Z,18.50
2022-08-17T21:37:44.373Z,23.00
2022-08-17T21:40:23.538Z,22.75
2022-08-17T21:42:53.879Z,23.00
2022-08-17T21:45:23.516Z,20.75
2022-08-17T21:47:52.579Z,17.25
2022-08-17T21:50:22.288Z,21.25
2022-08-17T21:52:54.139Z,18.25
2022-08-17T21:55:28.247Z,6.25
2022-08-17T21:58:13.425Z,18.50
2022-08-17T22:00:44.686Z,18.00
2022-08-17T22:03:25.943Z,17.25
2022-08-17T22:05:54.138Z,21.00
2022-08-17T22:08:24.844Z,20.50
2022-08-17T22:11:01.142Z,19.00
2022-08-17T22:13:30.066Z,18.25
2022-08-17T22:16:28.468Z,18.00
2022-08-17T22:18:59.184Z,16.50
2022-08-17T22:21:28.072Z,20.50
2022-08-17T22:24:05.255Z,21.00
2022-08-17T22:27:00.274Z,19.75
2022-08-17T22:29:45.000Z,20.50
2022-08-17T22:32:31.270Z,19.50
2022-08-17T22:35:32.765Z,20.00
2022-08-17T22:38:15.642Z,17.75
2022-08-17T22:40:46.162Z,18.25
2022-08-17T22:43:14.611Z,19.00
2022-08-17T22:45:45.767Z,12.50
2022-08-17T22:48:20.379Z,16.75
2022-08-17T22:50:48.545Z,19.00
2022-08-17T22:53:35.549Z,17.50
2022-08-17T22:56:23.087Z,15.00
2022-08-17T22:59:11.080Z,16.00
2022-08-17T23:01:39.715Z,19.00
2022-08-17T23:04:08.997Z,17.00
2022-08-17T23:06:39.145Z,18.25
2022-08-17T23:09:08.074Z,16.75
2022-08-17T23:11:49.413Z,15.00
2022-08-17T23:14:19.919Z,17.25
2022-08-17T23:16:49.253Z,16.25
2022-08-17T23:19:19.130Z,17.00
2022-08-17T23:21:47.692Z,14.25
2022-08-17T23:24:17.544Z,14.50
2022-08-17T23:26:47.555Z,14.00
2022-08-17T23:29:15.712Z,16.25
2022-08-17T23:31:43.871Z,16.00
2022-08-17T23:34:13.556Z,16.25
2022-08-17T23:36:41.688Z,16.25
2022-08-17T23:39:09.794Z,17.00
2022-08-17T23:41:40.053Z,15.50
2022-08-17T23:44:09.643Z,13.50
2022-08-17T23:46:37.684Z,16.75
2022-08-17T23:49:06.757Z,14.75
2022-08-17T23:51:37.310Z,16.00
2022-08-17T23:54:08.467Z,17.00
2022-08-17T23:56:41.914Z,16.50
2022-08-17T23:59:11.763Z,16.00
